sensor_id;sensor_type;location;lat;lon;timestamp;temperature;humidity
21759;DHT22;11041;50.854;20.580;2023-03-01T00:01:29;-3.80;99.90
21759;DHT22;11041;50.854;20.580;2023-03-01T00:03:57;-3.90;99.90
21759;DHT22;11041;50.854;20.580;2023-03-01T00:06:26;-3.90;99.90
21759;DHT22;11041;50.854;20.580;2023-03-01T00:08:53;-3.90;99.90
21759;DHT22;11041;50.854;20.580;2023-03-01T00:11:23;-4.00;99.90
21759;DHT22;11041;50.854;20.580;2023-03-01T00:13:53;-3.90;99.90
21759;DHT22;11041;50.854;20.580;2023-03-01T00:16:27;-4.00;99.90
21759;DHT22;11041;50.854;20.580;2023-03-01T00:18:57;-4.10;99.90
21759;DHT22;11041;50.854;20.580;2023-03-01T00:21:25;-3.90;99.90
21759;DHT22;11041;50.854;20.580;2023-03-01T00:23:53;-3.90;99.90
21759;DHT22;11041;50.854;20.580;2023-03-01T00:26:22;-3.80;99.90
21759;DHT22;11041;50.854;20.580;2023-03-01T00:28:50;-3.80;99.90
21759;DHT22;11041;50.854;20.580;2023-03-01T00:31:20;-3.70;99.90
21759;DHT22;11041;50.854;20.580;2023-03-01T00:33:51;-3.80;99.90
21759;DHT22;11041;50.854;20.580;2023-03-01T00:36:25;-3.80;99.90
21759;DHT22;11041;50.854;20.580;2023-03-01T00:38:54;-3.80;99.90
21759;DHT22;11041;50.854;20.580;2023-03-01T00:41:22;-3.90;99.90
21759;DHT22;11041;50.854;20.580;2023-03-01T00:43:50;-3.90;99.90
21759;DHT22;11041;50.854;20.580;2023-03-01T00:46:19;-4.00;99.90
21759;DHT22;11041;50.854;20.580;2023-03-01T00:48:47;-4.00;99.90
21759;DHT22;11041;50.854;20.580;2023-03-01T00:51:18;-4.00;99.90
21759;DHT22;11041;50.854;20.580;2023-03-01T00:53:49;-4.00;99.90
21759;DHT22;11041;50.854;20.580;2023-03-01T00:56:17;-4.00;99.90
21759;DHT22;11041;50.854;20.580;2023-03-01T00:58:44;-4.20;99.90
21759;DHT22;11041;50.854;20.580;2023-03-01T01:01:14;-4.30;99.90
21759;DHT22;11041;50.854;20.580;2023-03-01T01:03:47;-4.30;99.90
21759;DHT22;11041;50.854;20.580;2023-03-01T01:06:22;-4.50;99.90
21759;DHT22;11041;50.854;20.580;2023-03-01T01:08:50;-4.40;99.90
21759;DHT22;11041;50.854;20.580;2023-03-01T01:11:19;-4.20;99.90
21759;DHT22;11041;50.854;20.580;2023-03-01T01:13:47;-4.20;99.90
21759;DHT22;11041;50.854;20.580;2023-03-01T01:16:16;-4.10;99.90
21759;DHT22;11041;50.854;20.580;2023-03-01T01:18:44;-4.10;99.90
21759;DHT22;11041;50.854;20.580;2023-03-01T01:21:14;-4.10;99.90
21759;DHT22;11041;50.854;20.580;2023-03-01T01:23:45;-4.10;99.90
21759;DHT22;11041;50.854;20.580;2023-03-01T01:26:19;-4.20;99.90
21759;DHT22;11041;50.854;20.580;2023-03-01T01:28:48;-4.10;99.90
21759;DHT22;11041;50.854;20.580;2023-03-01T01:31:15;-4.10;99.90
21759;DHT22;11041;50.854;20.580;2023-03-01T01:33:42;-4.10;99.90
21759;DHT22;11041;50.854;20.580;2023-03-01T01:36:09;-4.10;99.90
21759;DHT22;11041;50.854;20.580;2023-03-01T01:38:37;-4.20;99.90
21759;DHT22;11041;50.854;20.580;2023-03-01T01:41:05;-4.20;99.90
21759;DHT22;11041;50.854;20.580;2023-03-01T01:43:39;-4.20;99.90
21759;DHT22;11041;50.854;20.580;2023-03-01T01:49:01;-4.40;99.90
21759;DHT22;11041;50.854;20.580;2023-03-01T01:51:37;-4.40;99.90
21759;DHT22;11041;50.854;20.580;2023-03-01T01:54:26;-4.80;99.90
21759;DHT22;11041;50.854;20.580;2023-03-01T01:57:02;-4.70;99.90
21759;DHT22;11041;50.854;20.580;2023-03-01T01:59:34;-4.60;99.90
21759;DHT22;11041;50.854;20.580;2023-03-01T02:02:03;-4.70;99.90
21759;DHT22;11041;50.854;20.580;2023-03-01T02:04:32;-4.90;99.90
21759;DHT22;11041;50.854;20.580;2023-03-01T02:07:21;-4.80;99.90
21759;DHT22;11041;50.854;20.580;2023-03-01T02:09:51;-4.70;99.90
21759;DHT22;11041;50.854;20.580;2023-03-01T02:12:23;-4.60;99.90
21759;DHT22;11041;50.854;20.580;2023-03-01T02:14:51;-4.60;99.90
21759;DHT22;11041;50.854;20.580;2023-03-01T02:17:18;-4.60;99.90
21759;DHT22;11041;50.854;20.580;2023-03-01T02:23:09;-4.50;99.90
21759;DHT22;11041;50.854;20.580;2023-03-01T02:25:50;-4.50;99.90
21759;DHT22;11041;50.854;20.580;2023-03-01T02:28:38;-4.50;99.90
21759;DHT22;11041;50.854;20.580;2023-03-01T02:31:08;-4.50;99.90
21759;DHT22;11041;50.854;20.580;2023-03-01T02:33:56;-4.50;99.90
21759;DHT22;11041;50.854;20.580;2023-03-01T02:36:26;-4.80;99.90
21759;DHT22;11041;50.854;20.580;2023-03-01T02:38:58;-4.70;99.90
21759;DHT22;11041;50.854;20.580;2023-03-01T02:41:30;-4.70;99.90
21759;DHT22;11041;50.854;20.580;2023-03-01T02:44:02;-4.60;99.90
21759;DHT22;11041;50.854;20.580;2023-03-01T02:46:30;-4.60;99.90
21759;DHT22;11041;50.854;20.580;2023-03-01T02:48:58;-4.60;99.90
21759;DHT22;11041;50.854;20.580;2023-03-01T02:51:33;-4.60;99.90
21759;DHT22;11041;50.854;20.580;2023-03-01T02:54:27;-4.60;99.90
21759;DHT22;11041;50.854;20.580;2023-03-01T02:56:57;-4.60;99.90
21759;DHT22;11041;50.854;20.580;2023-03-01T02:59:30;-4.60;99.90
21759;DHT22;11041;50.854;20.580;2023-03-01T03:05:08;-4.60;99.90
21759;DHT22;11041;50.854;20.580;2023-03-01T03:07:43;-5.00;99.90
21759;DHT22;11041;50.854;20.580;2023-03-01T03:10:14;-4.90;99.90
21759;DHT22;11041;50.854;20.580;2023-03-01T03:12:52;-4.80;99.90
21759;DHT22;11041;50.854;20.580;2023-03-01T03:15:25;-4.80;99.90
21759;DHT22;11041;50.854;20.580;2023-03-01T03:17:53;-4.70;99.90
21759;DHT22;11041;50.854;20.580;2023-03-01T03:20:22;-4.80;99.90
21759;DHT22;11041;50.854;20.580;2023-03-01T03:22:54;-4.80;99.90
21759;DHT22;11041;50.854;20.580;2023-03-01T03:25:22;-4.80;99.90
21759;DHT22;11041;50.854;20.580;2023-03-01T03:27:51;-4.80;99.90
21759;DHT22;11041;50.854;20.580;2023-03-01T03:30:25;-4.90;99.90
21759;DHT22;11041;50.854;20.580;2023-03-01T03:32:54;-4.90;99.90
21759;DHT22;11041;50.854;20.580;2023-03-01T03:35:30;-5.00;99.90
21759;DHT22;11041;50.854;20.580;2023-03-01T03:38:01;-5.00;99.90
21759;DHT22;11041;50.854;20.580;2023-03-01T03:40:40;-5.10;99.90
21759;DHT22;11041;50.854;20.580;2023-03-01T03:43:14;-5.50;99.90
21759;DHT22;11041;50.854;20.580;2023-03-01T03:45:44;-5.50;99.90
21759;DHT22;11041;50.854;20.580;2023-03-01T03:48:12;-5.70;99.90
21759;DHT22;11041;50.854;20.580;2023-03-01T03:50:40;-5.80;99.90
21759;DHT22;11041;50.854;20.580;2023-03-01T03:53:09;-5.90;99.90
21759;DHT22;11041;50.854;20.580;2023-03-01T03:55:38;-5.70;99.90
21759;DHT22;11041;50.854;20.580;2023-03-01T03:58:06;-5.60;99.90
21759;DHT22;11041;50.854;20.580;2023-03-01T04:00:42;-5.50;99.90
21759;DHT22;11041;50.854;20.580;2023-03-01T04:03:11;-5.40;99.90
21759;DHT22;11041;50.854;20.580;2023-03-01T04:05:40;-5.30;99.90
21759;DHT22;11041;50.854;20.580;2023-03-01T04:08:08;-5.30;99.90
21759;DHT22;11041;50.854;20.580;2023-03-01T04:10:38;-5.30;99.90
21759;DHT22;11041;50.854;20.580;2023-03-01T04:13:18;-5.20;99.90
21759;DHT22;11041;50.854;20.580;2023-03-01T04:15:52;-5.20;99.90
21759;DHT22;11041;50.854;20.580;2023-03-01T04:18:21;-5.30;99.90
21759;DHT22;11041;50.854;20.580;2023-03-01T04:20:49;-5.20;99.90
21759;DHT22;11041;50.854;20.580;2023-03-01T04:23:19;-5.10;99.90
21759;DHT22;11041;50.854;20.580;2023-03-01T04:25:55;-5.10;99.90
21759;DHT22;11041;50.854;20.580;2023-03-01T04:28:32;-5.10;99.90
21759;DHT22;11041;50.854;20.580;2023-03-01T04:31:04;-5.10;99.90
21759;DHT22;11041;50.854;20.580;2023-03-01T04:33:50;-5.10;99.90
21759;DHT22;11041;50.854;20.580;2023-03-01T04:36:20;-5.10;99.90
21759;DHT22;11041;50.854;20.580;2023-03-01T04:38:48;-5.10;99.90
21759;DHT22;11041;50.854;20.580;2023-03-01T04:41:17;-5.20;99.90
21759;DHT22;11041;50.854;20.580;2023-03-01T04:43:45;-5.10;99.90
21759;DHT22;11041;50.854;20.580;2023-03-01T04:46:15;-5.10;99.90
21759;DHT22;11041;50.854;20.580;2023-03-01T04:48:44;-5.20;99.90
21759;DHT22;11041;50.854;20.580;2023-03-01T04:51:12;-5.40;99.90
21759;DHT22;11041;50.854;20.580;2023-03-01T04:53:40;-5.30;99.90
21759;DHT22;11041;50.854;20.580;2023-03-01T04:56:08;-5.30;99.90
21759;DHT22;11041;50.854;20.580;2023-03-01T04:58:35;-5.30;99.90
21759;DHT22;11041;50.854;20.580;2023-03-01T05:01:13;-5.40;99.90
21759;DHT22;11041;50.854;20.580;2023-03-01T05:03:50;-5.40;99.90
21759;DHT22;11041;50.854;20.580;2023-03-01T05:06:18;-5.30;99.90
21759;DHT22;11041;50.854;20.580;2023-03-01T05:08:46;-5.20;99.90
21759;DHT22;11041;50.854;20.580;2023-03-01T05:11:12;-5.30;99.90
21759;DHT22;11041;50.854;20.580;2023-03-01T05:13:39;-5.20;99.90
21759;DHT22;11041;50.854;20.580;2023-03-01T05:16:07;-5.20;99.90
21759;DHT22;11041;50.854;20.580;2023-03-01T05:18:36;-5.20;99.90
21759;DHT22;11041;50.854;20.580;2023-03-01T05:21:06;-5.10;99.90
21759;DHT22;11041;50.854;20.580;2023-03-01T05:23:35;-5.10;99.90
21759;DHT22;11041;50.854;20.580;2023-03-01T05:26:03;-5.10;99.90
21759;DHT22;11041;50.854;20.580;2023-03-01T05:28:32;-5.20;99.90
21759;DHT22;11041;50.854;20.580;2023-03-01T05:30:59;-5.10;99.90
21759;DHT22;11041;50.854;20.580;2023-03-01T05:33:27;-5.20;99.90
21759;DHT22;11041;50.854;20.580;2023-03-01T05:35:53;-5.10;99.90
21759;DHT22;11041;50.854;20.580;2023-03-01T05:38:20;-5.10;99.90
21759;DHT22;11041;50.854;20.580;2023-03-01T05:40:48;-5.30;99.90
21759;DHT22;11041;50.854;20.580;2023-03-01T05:43:16;-5.40;99.90
21759;DHT22;11041;50.854;20.580;2023-03-01T05:45:44;-5.50;99.90
21759;DHT22;11041;50.854;20.580;2023-03-01T05:48:12;-5.60;99.90
21759;DHT22;11041;50.854;20.580;2023-03-01T05:50:43;-5.50;99.90
21759;DHT22;11041;50.854;20.580;2023-03-01T05:53:20;-5.40;99.90
21759;DHT22;11041;50.854;20.580;2023-03-01T05:55:49;-5.30;99.90
21759;DHT22;11041;50.854;20.580;2023-03-01T05:58:17;-5.20;99.90
21759;DHT22;11041;50.854;20.580;2023-03-01T07:39:13;-2.20;99.90
21759;DHT22;11041;50.854;20.580;2023-03-01T07:41:40;-2.00;99.90
21759;DHT22;11041;50.854;20.580;2023-03-01T07:44:06;-1.90;99.90
21759;DHT22;11041;50.854;20.580;2023-03-01T07:46:33;-1.80;99.90
21759;DHT22;11041;50.854;20.580;2023-03-01T07:48:59;-1.70;99.90
21759;DHT22;11041;50.854;20.580;2023-03-01T07:51:26;-1.50;99.90
21759;DHT22;11041;50.854;20.580;2023-03-01T07:53:52;-1.40;99.90
21759;DHT22;11041;50.854;20.580;2023-03-01T07:56:18;-1.30;99.90
21759;DHT22;11041;50.854;20.580;2023-03-01T07:58:46;-1.20;99.90
21759;DHT22;11041;50.854;20.580;2023-03-01T08:01:15;-1.00;99.90
21759;DHT22;11041;50.854;20.580;2023-03-01T08:03:44;-0.90;99.90
21759;DHT22;11041;50.854;20.580;2023-03-01T08:06:14;-0.70;99.90
21759;DHT22;11041;50.854;20.580;2023-03-01T08:08:42;-0.50;99.90
21759;DHT22;11041;50.854;20.580;2023-03-01T08:11:11;-0.40;99.90
21759;DHT22;11041;50.854;20.580;2023-03-01T08:13:40;-0.20;99.90
21759;DHT22;11041;50.854;20.580;2023-03-01T08:16:09;-0.10;99.90
21759;DHT22;11041;50.854;20.580;2023-03-01T08:18:38;0.10;99.90
21759;DHT22;11041;50.854;20.580;2023-03-01T08:21:07;0.80;99.90
21759;DHT22;11041;50.854;20.580;2023-03-01T08:23:36;-0.10;99.90
21759;DHT22;11041;50.854;20.580;2023-03-01T08:26:20;0.40;99.90
21759;DHT22;11041;50.854;20.580;2023-03-01T08:28:48;0.50;99.90
21759;DHT22;11041;50.854;20.580;2023-03-01T08:31:17;0.50;99.90
21759;DHT22;11041;50.854;20.580;2023-03-01T08:33:48;0.60;99.90
21759;DHT22;11041;50.854;20.580;2023-03-01T08:36:24;0.80;99.90
21759;DHT22;11041;50.854;20.580;2023-03-01T08:38:53;0.90;99.90
21759;DHT22;11041;50.854;20.580;2023-03-01T08:41:20;1.00;99.90
21759;DHT22;11041;50.854;20.580;2023-03-01T08:43:47;1.00;99.90
21759;DHT22;11041;50.854;20.580;2023-03-01T08:46:14;0.90;99.90
21759;DHT22;11041;50.854;20.580;2023-03-01T08:48:41;1.00;99.90
21759;DHT22;11041;50.854;20.580;2023-03-01T08:51:17;1.00;99.90
21759;DHT22;11041;50.854;20.580;2023-03-01T08:53:45;1.10;99.90
21759;DHT22;11041;50.854;20.580;2023-03-01T08:56:13;1.20;99.90
21759;DHT22;11041;50.854;20.580;2023-03-01T08:58:44;1.20;99.90
21759;DHT22;11041;50.854;20.580;2023-03-01T09:01:15;1.30;99.90
21759;DHT22;11041;50.854;20.580;2023-03-01T09:03:44;1.30;99.90
21759;DHT22;11041;50.854;20.580;2023-03-01T09:06:12;1.50;99.90
21759;DHT22;11041;50.854;20.580;2023-03-01T09:08:46;1.60;99.90
21759;DHT22;11041;50.854;20.580;2023-03-01T09:11:16;1.50;99.90
21759;DHT22;11041;50.854;20.580;2023-03-01T09:13:46;1.70;99.90
21759;DHT22;11041;50.854;20.580;2023-03-01T09:16:16;1.70;99.90
21759;DHT22;11041;50.854;20.580;2023-03-01T09:18:48;1.80;99.90
21759;DHT22;11041;50.854;20.580;2023-03-01T09:21:17;1.80;99.90
21759;DHT22;11041;50.854;20.580;2023-03-01T09:23:46;1.90;99.90
21759;DHT22;11041;50.854;20.580;2023-03-01T09:26:21;1.90;99.90
21759;DHT22;11041;50.854;20.580;2023-03-01T09:28:51;2.00;99.90
21759;DHT22;11041;50.854;20.580;2023-03-01T09:31:21;2.00;99.90
21759;DHT22;11041;50.854;20.580;2023-03-01T09:33:52;2.10;99.90
21759;DHT22;11041;50.854;20.580;2023-03-01T09:36:22;2.10;99.90
21759;DHT22;11041;50.854;20.580;2023-03-01T09:38:51;2.20;99.90
21759;DHT22;11041;50.854;20.580;2023-03-01T09:44:34;2.50;99.90
21759;DHT22;11041;50.854;20.580;2023-03-01T09:47:27;2.50;99.90
21759;DHT22;11041;50.854;20.580;2023-03-01T09:50:11;2.50;99.90
21759;DHT22;11041;50.854;20.580;2023-03-01T10:01:55;2.80;99.90
21759;DHT22;11041;50.854;20.580;2023-03-01T10:04:46;2.80;99.90
21759;DHT22;11041;50.854;20.580;2023-03-01T10:10:08;3.00;99.90
21759;DHT22;11041;50.854;20.580;2023-03-01T10:12:42;3.00;99.90
21759;DHT22;11041;50.854;20.580;2023-03-01T10:15:18;3.00;99.90
21759;DHT22;11041;50.854;20.580;2023-03-01T10:17:55;3.10;99.90
21759;DHT22;11041;50.854;20.580;2023-03-01T10:20:37;3.20;99.90
21759;DHT22;11041;50.854;20.580;2023-03-01T10:23:12;3.20;99.90
21759;DHT22;11041;50.854;20.580;2023-03-01T10:28:20;3.50;99.90
21759;DHT22;11041;50.854;20.580;2023-03-01T10:31:15;3.60;99.90
21759;DHT22;11041;50.854;20.580;2023-03-01T10:33:46;3.50;99.90
21759;DHT22;11041;50.854;20.580;2023-03-01T10:36:13;3.70;99.90
21759;DHT22;11041;50.854;20.580;2023-03-01T10:38:55;3.90;99.90
21759;DHT22;11041;50.854;20.580;2023-03-01T10:41:27;4.00;99.90
21759;DHT22;11041;50.854;20.580;2023-03-01T10:43:55;4.20;99.90
21759;DHT22;11041;50.854;20.580;2023-03-01T10:46:35;4.10;99.90
21759;DHT22;11041;50.854;20.580;2023-03-01T10:49:17;4.10;99.90
21759;DHT22;11041;50.854;20.580;2023-03-01T10:51:52;4.20;99.90
21759;DHT22;11041;50.854;20.580;2023-03-01T10:54:31;4.30;99.90
21759;DHT22;11041;50.854;20.580;2023-03-01T10:57:04;4.20;99.90
21759;DHT22;11041;50.854;20.580;2023-03-01T10:59:34;4.20;99.90
21759;DHT22;11041;50.854;20.580;2023-03-01T11:02:29;4.30;99.90
21759;DHT22;11041;50.854;20.580;2023-03-01T11:07:27;4.50;99.90
21759;DHT22;11041;50.854;20.580;2023-03-01T11:09:55;4.50;98.40
21759;DHT22;11041;50.854;20.580;2023-03-01T11:12:22;4.50;99.90
21759;DHT22;11041;50.854;20.580;2023-03-01T11:14:52;4.60;99.90
21759;DHT22;11041;50.854;20.580;2023-03-01T11:17:30;4.70;99.90
21759;DHT22;11041;50.854;20.580;2023-03-01T11:20:13;5.00;99.90
21759;DHT22;11041;50.854;20.580;2023-03-01T11:22:51;4.90;96.70
21759;DHT22;11041;50.854;20.580;2023-03-01T11:25:26;4.80;96.30
21759;DHT22;11041;50.854;20.580;2023-03-01T11:28:00;4.90;97.30
21759;DHT22;11041;50.854;20.580;2023-03-01T11:36:35;5.30;96.70
21759;DHT22;11041;50.854;20.580;2023-03-01T11:42:37;5.40;94.60
21759;DHT22;11041;50.854;20.580;2023-03-01T11:45:14;5.50;90.70
21759;DHT22;11041;50.854;20.580;2023-03-01T11:50:47;5.60;82.60
21759;DHT22;11041;50.854;20.580;2023-03-01T11:56:38;5.60;87.60
21759;DHT22;11041;50.854;20.580;2023-03-01T12:08:17;6.30;84.00
21759;DHT22;11041;50.854;20.580;2023-03-01T12:26:16;6.90;76.80
21759;DHT22;11041;50.854;20.580;2023-03-01T12:28:57;6.80;76.60
21759;DHT22;11041;50.854;20.580;2023-03-01T12:31:43;6.80;76.30
21759;DHT22;11041;50.854;20.580;2023-03-01T12:50:24;6.30;76.80
21759;DHT22;11041;50.854;20.580;2023-03-01T12:52:59;6.60;76.40
21759;DHT22;11041;50.854;20.580;2023-03-01T12:55:38;6.80;76.70
21759;DHT22;11041;50.854;20.580;2023-03-01T13:07:23;7.30;74.30
21759;DHT22;11041;50.854;20.580;2023-03-01T13:13:19;7.20;72.00
21759;DHT22;11041;50.854;20.580;2023-03-01T13:15:48;7.30;72.70
21759;DHT22;11041;50.854;20.580;2023-03-01T13:20:50;7.00;72.10
21759;DHT22;11041;50.854;20.580;2023-03-01T13:23:28;7.20;73.80
21759;DHT22;11041;50.854;20.580;2023-03-01T13:33:52;7.10;72.10
21759;DHT22;11041;50.854;20.580;2023-03-01T13:36:48;6.90;71.00
21759;DHT22;11041;50.854;20.580;2023-03-01T13:39:30;6.60;71.50
21759;DHT22;11041;50.854;20.580;2023-03-01T13:45:00;6.80;72.30
21759;DHT22;11041;50.854;20.580;2023-03-01T13:47:28;6.80;71.20
21759;DHT22;11041;50.854;20.580;2023-03-01T13:50:01;6.90;71.00
21759;DHT22;11041;50.854;20.580;2023-03-01T13:57:43;6.50;70.00
21759;DHT22;11041;50.854;20.580;2023-03-01T14:00:33;6.60;70.00
21759;DHT22;11041;50.854;20.580;2023-03-01T14:03:11;6.50;70.60
21759;DHT22;11041;50.854;20.580;2023-03-01T14:05:57;6.60;70.90
21759;DHT22;11041;50.854;20.580;2023-03-01T14:08:36;6.60;72.00
21759;DHT22;11041;50.854;20.580;2023-03-01T14:19:47;6.70;72.40
21759;DHT22;11041;50.854;20.580;2023-03-01T14:22:22;6.80;71.50
21759;DHT22;11041;50.854;20.580;2023-03-01T14:24:59;6.80;69.50
21759;DHT22;11041;50.854;20.580;2023-03-01T14:27:37;6.70;69.80
21759;DHT22;11041;50.854;20.580;2023-03-01T14:30:12;6.70;70.60
21759;DHT22;11041;50.854;20.580;2023-03-01T14:32:59;6.60;69.60
21759;DHT22;11041;50.854;20.580;2023-03-01T14:35:33;6.60;70.00
21759;DHT22;11041;50.854;20.580;2023-03-01T14:38:02;6.70;69.20
21759;DHT22;11041;50.854;20.580;2023-03-01T14:40:35;6.70;70.60
21759;DHT22;11041;50.854;20.580;2023-03-01T14:43:10;6.70;69.80
21759;DHT22;11041;50.854;20.580;2023-03-01T14:45:47;6.70;69.20
21759;DHT22;11041;50.854;20.580;2023-03-01T14:48:15;6.60;70.00
21759;DHT22;11041;50.854;20.580;2023-03-01T14:50:44;6.80;69.00
21759;DHT22;11041;50.854;20.580;2023-03-01T14:53:24;6.60;69.20
21759;DHT22;11041;50.854;20.580;2023-03-01T14:55:56;6.40;69.80
21759;DHT22;11041;50.854;20.580;2023-03-01T14:58:32;6.40;68.80
21759;DHT22;11041;50.854;20.580;2023-03-01T15:01:03;6.40;69.20
21759;DHT22;11041;50.854;20.580;2023-03-01T15:06:07;6.30;70.40
21759;DHT22;11041;50.854;20.580;2023-03-01T15:08:36;6.20;69.80
21759;DHT22;11041;50.854;20.580;2023-03-01T15:13:41;6.10;69.80
21759;DHT22;11041;50.854;20.580;2023-03-01T15:16:13;5.90;71.10
21759;DHT22;11041;50.854;20.580;2023-03-01T15:18:54;5.90;70.70
21759;DHT22;11041;50.854;20.580;2023-03-01T15:21:27;5.90;71.60
21759;DHT22;11041;50.854;20.580;2023-03-01T15:24:20;6.00;71.50
21759;DHT22;11041;50.854;20.580;2023-03-01T15:26:53;5.90;74.40
21759;DHT22;11041;50.854;20.580;2023-03-01T15:29:30;5.70;75.40
21759;DHT22;11041;50.854;20.580;2023-03-01T15:32:04;5.70;74.30
21759;DHT22;11041;50.854;20.580;2023-03-01T15:34:37;5.50;76.10
21759;DHT22;11041;50.854;20.580;2023-03-01T15:37:06;5.40;75.80
21759;DHT22;11041;50.854;20.580;2023-03-01T15:40:25;5.30;77.90
21759;DHT22;11041;50.854;20.580;2023-03-01T15:43:05;5.30;80.10
21759;DHT22;11041;50.854;20.580;2023-03-01T15:45:33;5.10;80.50
21759;DHT22;11041;50.854;20.580;2023-03-01T15:48:03;5.10;80.10
21759;DHT22;11041;50.854;20.580;2023-03-01T15:50:35;4.90;84.30
21759;DHT22;11041;50.854;20.580;2023-03-01T15:53:10;4.80;87.40
21759;DHT22;11041;50.854;20.580;2023-03-01T15:55:42;4.70;92.00
21759;DHT22;11041;50.854;20.580;2023-03-01T15:58:24;4.50;94.40
21759;DHT22;11041;50.854;20.580;2023-03-01T16:13:49;3.70;99.90
21759;DHT22;11041;50.854;20.580;2023-03-01T16:16:16;3.50;99.90
21759;DHT22;11041;50.854;20.580;2023-03-01T16:18:44;3.40;99.90
21759;DHT22;11041;50.854;20.580;2023-03-01T16:21:22;3.30;99.90
21759;DHT22;11041;50.854;20.580;2023-03-01T16:23:51;3.20;99.90
21759;DHT22;11041;50.854;20.580;2023-03-01T16:26:19;3.10;99.90
21759;DHT22;11041;50.854;20.580;2023-03-01T16:28:46;3.00;99.90
21759;DHT22;11041;50.854;20.580;2023-03-01T16:31:19;2.90;99.90
21759;DHT22;11041;50.854;20.580;2023-03-01T16:34:35;2.90;99.90
21759;DHT22;11041;50.854;20.580;2023-03-01T16:37:16;2.70;99.90
21759;DHT22;11041;50.854;20.580;2023-03-01T16:39:45;2.60;99.90
21759;DHT22;11041;50.854;20.580;2023-03-01T16:42:13;2.40;99.90
21759;DHT22;11041;50.854;20.580;2023-03-01T16:44:39;2.40;99.90
21759;DHT22;11041;50.854;20.580;2023-03-01T16:47:18;1.00;99.90
21759;DHT22;11041;50.854;20.580;2023-03-01T16:49:53;1.00;99.90
21759;DHT22;11041;50.854;20.580;2023-03-01T16:52:37;2.00;99.90
21759;DHT22;11041;50.854;20.580;2023-03-01T16:55:06;1.90;99.90
21759;DHT22;11041;50.854;20.580;2023-03-01T16:57:37;1.80;99.90
21759;DHT22;11041;50.854;20.580;2023-03-01T17:00:09;1.80;99.90
21759;DHT22;11041;50.854;20.580;2023-03-01T17:02:40;1.70;99.90
21759;DHT22;11041;50.854;20.580;2023-03-01T17:05:08;1.70;99.90
21759;DHT22;11041;50.854;20.580;2023-03-01T17:07:39;1.60;99.90
21759;DHT22;11041;50.854;20.580;2023-03-01T17:10:10;1.60;99.90
21759;DHT22;11041;50.854;20.580;2023-03-01T17:12:37;1.50;99.90
21759;DHT22;11041;50.854;20.580;2023-03-01T17:15:05;1.40;99.90
21759;DHT22;11041;50.854;20.580;2023-03-01T17:17:33;1.40;99.90
21759;DHT22;11041;50.854;20.580;2023-03-01T17:20:12;1.30;99.90
21759;DHT22;11041;50.854;20.580;2023-03-01T17:34:06;1.00;99.90
21759;DHT22;11041;50.854;20.580;2023-03-01T17:37:49;1.30;99.90
21759;DHT22;11041;50.854;20.580;2023-03-01T17:44:17;0.90;99.90
21759;DHT22;11041;50.854;20.580;2023-03-01T17:47:20;0.70;99.90
21759;DHT22;11041;50.854;20.580;2023-03-01T17:54:08;0.70;99.90
21759;DHT22;11041;50.854;20.580;2023-03-01T17:57:28;0.50;99.90
21759;DHT22;11041;50.854;20.580;2023-03-01T17:59:54;0.40;99.90
21759;DHT22;11041;50.854;20.580;2023-03-01T18:02:21;0.30;99.90
21759;DHT22;11041;50.854;20.580;2023-03-01T18:04:48;0.30;99.90
21759;DHT22;11041;50.854;20.580;2023-03-01T18:07:14;0.30;99.90
21759;DHT22;11041;50.854;20.580;2023-03-01T18:09:42;0.20;99.90
21759;DHT22;11041;50.854;20.580;2023-03-01T18:12:09;0.20;99.90
21759;DHT22;11041;50.854;20.580;2023-03-01T18:14:36;1.40;99.90
21759;DHT22;11041;50.854;20.580;2023-03-01T18:17:03;0.20;99.90
21759;DHT22;11041;50.854;20.580;2023-03-01T18:19:38;0.20;99.90
21759;DHT22;11041;50.854;20.580;2023-03-01T18:22:08;0.10;99.90
21759;DHT22;11041;50.854;20.580;2023-03-01T18:24:36;0.10;99.90
21759;DHT22;11041;50.854;20.580;2023-03-01T18:27:04;0.00;99.90
21759;DHT22;11041;50.854;20.580;2023-03-01T18:29:31;0.00;99.90
21759;DHT22;11041;50.854;20.580;2023-03-01T18:31:59;0.00;99.90
21759;DHT22;11041;50.854;20.580;2023-03-01T18:34:26;0.00;99.90
21759;DHT22;11041;50.854;20.580;2023-03-01T18:36:53;0.00;99.90
21759;DHT22;11041;50.854;20.580;2023-03-01T18:39:22;-0.10;99.90
21759;DHT22;11041;50.854;20.580;2023-03-01T18:41:49;-0.10;99.90
21759;DHT22;11041;50.854;20.580;2023-03-01T18:44:16;-0.10;99.90
21759;DHT22;11041;50.854;20.580;2023-03-01T18:46:43;-0.20;99.90
21759;DHT22;11041;50.854;20.580;2023-03-01T18:49:15;-0.20;99.90
21759;DHT22;11041;50.854;20.580;2023-03-01T18:51:42;-0.20;99.90
21759;DHT22;11041;50.854;20.580;2023-03-01T18:54:10;-0.20;99.90
21759;DHT22;11041;50.854;20.580;2023-03-01T18:56:38;-0.30;99.90
21759;DHT22;11041;50.854;20.580;2023-03-01T18:59:04;-0.30;99.90
21759;DHT22;11041;50.854;20.580;2023-03-01T19:01:31;-0.20;99.90
21759;DHT22;11041;50.854;20.580;2023-03-01T19:03:58;-0.30;99.90
21759;DHT22;11041;50.854;20.580;2023-03-01T19:06:31;-0.40;99.90
21759;DHT22;11041;50.854;20.580;2023-03-01T19:09:00;-0.40;99.90
21759;DHT22;11041;50.854;20.580;2023-03-01T19:11:26;-0.30;99.90
21759;DHT22;11041;50.854;20.580;2023-03-01T19:13:56;-0.30;99.90
21759;DHT22;11041;50.854;20.580;2023-03-01T19:16:25;-0.40;99.90
21759;DHT22;11041;50.854;20.580;2023-03-01T19:18:59;-0.40;99.90
21759;DHT22;11041;50.854;20.580;2023-03-01T19:21:28;-0.50;99.90
21759;DHT22;11041;50.854;20.580;2023-03-01T19:23:57;-0.50;99.90
21759;DHT22;11041;50.854;20.580;2023-03-01T19:26:27;-0.60;99.90
21759;DHT22;11041;50.854;20.580;2023-03-01T19:28:54;-0.70;99.90
21759;DHT22;11041;50.854;20.580;2023-03-01T19:31:25;-0.60;99.90
21759;DHT22;11041;50.854;20.580;2023-03-01T19:33:54;-0.60;99.90
21759;DHT22;11041;50.854;20.580;2023-03-01T19:36:23;-0.60;99.90
21759;DHT22;11041;50.854;20.580;2023-03-01T19:39:03;-0.80;99.90
21759;DHT22;11041;50.854;20.580;2023-03-01T19:41:33;-0.80;99.90
21759;DHT22;11041;50.854;20.580;2023-03-01T19:44:00;-0.80;99.90
21759;DHT22;11041;50.854;20.580;2023-03-01T19:46:31;-0.80;99.90
21759;DHT22;11041;50.854;20.580;2023-03-01T19:48:58;-0.80;99.90
21759;DHT22;11041;50.854;20.580;2023-03-01T19:51:27;-0.70;99.90
21759;DHT22;11041;50.854;20.580;2023-03-01T19:53:54;-0.70;99.90
21759;DHT22;11041;50.854;20.580;2023-03-01T19:56:21;-0.80;99.90
21759;DHT22;11041;50.854;20.580;2023-03-01T19:58:48;-0.90;99.90
21759;DHT22;11041;50.854;20.580;2023-03-01T20:01:20;-0.90;99.90
21759;DHT22;11041;50.854;20.580;2023-03-01T20:03:47;-0.90;99.90
21759;DHT22;11041;50.854;20.580;2023-03-01T20:06:16;-0.90;99.90
21759;DHT22;11041;50.854;20.580;2023-03-01T20:08:46;-0.80;99.90
21759;DHT22;11041;50.854;20.580;2023-03-01T20:11:16;-0.90;99.90
21759;DHT22;11041;50.854;20.580;2023-03-01T20:13:44;-1.00;99.90
21759;DHT22;11041;50.854;20.580;2023-03-01T20:16:15;-1.00;99.90